createdAt,value
2022-09-06T00:00:00.145Z,11.70
2022-09-06T00:05:03.959Z,11.18
2022-09-06T00:10:07.118Z,9.10
2022-09-06T00:15:10.552Z,19.02
2022-09-06T00:20:13.369Z,17.23
2022-09-06T00:25:16.257Z,15.13
2022-09-06T00:30:19.133Z,17.13
2022-09-06T00:35:24.990Z,12.65
2022-09-06T00:40:29.962Z,11.55
2022-09-06T00:45:32.998Z,8.27
2022-09-06T00:50:35.974Z,8.77
2022-09-06T00:55:39.288Z,10.07
2022-09-06T01:00:42.560Z,9.50
2022-09-06T01:06:02.028Z,10.18
2022-09-06T01:11:30.852Z,13.23
2022-09-06T01:16:44.036Z,11.18
2022-09-06T01:22:17.658Z,9.65
2022-09-06T01:27:40.083Z,12.40
2022-09-06T01:33:17.436Z,12.27
2022-09-06T01:38:20.297Z,12.23
2022-09-06T01:43:27.263Z,10.38
2022-09-06T01:48:32.975Z,11.48
2022-09-06T01:53:52.030Z,7.25
2022-09-06T01:59:07.045Z,7.78
2022-09-06T02:04:15.904Z,9.02
2022-09-06T02:09:22.657Z,9.45
2022-09-06T02:14:48.813Z,8.30
2022-09-06T02:20:04.837Z,8.55
2022-09-06T02:25:10.224Z,13.63
2022-09-06T02:30:13.331Z,7.78
2022-09-06T02:35:17.636Z,10.00
2022-09-06T02:40:20.942Z,9.13
2022-09-06T02:45:23.773Z,11.23
2022-09-06T02:50:26.627Z,10.38
2022-09-06T02:55:29.554Z,11.98
2022-09-06T03:00:33.031Z,11.00
2022-09-06T03:05:35.909Z,13.73
2022-09-06T03:10:38.837Z,11.80
2022-09-06T03:15:41.658Z,14.05
2022-09-06T03:20:44.549Z,13.43
2022-09-06T03:25:47.597Z,16.08
2022-09-06T03:30:51.870Z,12.35
2022-09-06T03:35:57.089Z,14.10
2022-09-06T03:40:59.929Z,13.45
2022-09-06T03:46:03.032Z,16.42
2022-09-06T03:51:06.055Z,11.32
2022-09-06T03:56:08.899Z,16.45
2022-09-06T04:01:12.970Z,12.52
2022-09-06T04:06:15.900Z,16.58
2022-09-06T04:11:18.918Z,13.23
2022-09-06T04:16:22.122Z,12.95
2022-09-06T04:21:25.092Z,12.95
2022-09-06T04:26:27.975Z,12.68
2022-09-06T04:31:30.973Z,9.70
2022-09-06T04:36:33.923Z,11.25
2022-09-06T04:41:36.766Z,11.70
2022-09-06T04:46:42.414Z,12.48
2022-09-06T04:51:45.290Z,10.68
2022-09-06T04:56:48.000Z,11.30
2022-09-06T05:01:50.954Z,12.40
2022-09-06T05:07:06.129Z,15.20
2022-09-06T05:12:09.016Z,15.88
2022-09-06T05:17:14.982Z,13.88
2022-09-06T05:22:17.966Z,14.88
2022-09-06T05:27:20.850Z,14.30
2022-09-06T05:32:23.655Z,14.60
2022-09-06T05:37:26.516Z,15.20
2022-09-06T05:42:29.330Z,20.90
2022-09-06T05:47:35.701Z,14.38
2022-09-06T05:52:39.699Z,10.70
2022-09-06T05:57:42.512Z,11.02
2022-09-06T06:02:48.852Z,18.00
2022-09-06T06:07:51.804Z,13.82
2022-09-06T06:12:54.762Z,12.32
2022-09-06T06:17:57.629Z,12.50
2022-09-06T06:23:00.483Z,10.10
2022-09-06T06:28:03.529Z,10.75
2022-09-06T06:33:06.286Z,10.35
2022-09-06T06:38:09.376Z,10.43
2022-09-06T06:43:12.327Z,11.43
2022-09-06T06:48:15.160Z,8.73
2022-09-06T06:53:18.014Z,10.40
2022-09-06T06:58:21.524Z,14.85
2022-09-06T07:03:24.339Z,9.68
2022-09-06T07:08:27.676Z,10.35
2022-09-06T07:13:32.268Z,10.43
2022-09-06T07:18:35.568Z,10.50
2022-09-06T07:29:03.204Z,10.55
2022-09-06T07:34:06.245Z,10.00
2022-09-06T07:39:09.127Z,10.60
2022-09-06T07:44:11.890Z,10.85
2022-09-06T07:49:14.850Z,10.50
2022-09-06T07:54:33.059Z,8.98
2022-09-06T07:59:38.969Z,11.15
2022-09-06T08:04:47.576Z,9.73
2022-09-06T08:09:52.549Z,19.20
2022-09-06T08:14:55.773Z,13.43
2022-09-06T08:19:58.753Z,10.80
2022-09-06T08:25:01.734Z,15.18
2022-09-06T08:30:06.682Z,16.67
2022-09-06T08:35:10.131Z,20.15
2022-09-06T08:40:20.800Z,11.55
2022-09-06T08:45:25.265Z,14.02
2022-09-06T08:50:29.055Z,8.88
2022-09-06T08:55:38.330Z,7.90
2022-09-06T09:00:43.670Z,9.50
2022-09-06T09:05:49.500Z,10.25
2022-09-06T09:11:05.347Z,10.35
2022-09-06T09:16:08.361Z,7.13
2022-09-06T09:21:11.360Z,10.65
2022-09-06T09:26:15.528Z,10.75
2022-09-06T09:31:38.060Z,7.90
2022-09-06T09:36:41.243Z,11.25
2022-09-06T09:41:44.188Z,15.73
2022-09-06T09:46:47.135Z,10.60
2022-09-06T09:52:07.977Z,18.73
2022-09-06T09:57:12.395Z,18.10
2022-09-06T10:08:13.234Z,15.20
2022-09-06T10:13:23.032Z,14.45
2022-09-06T10:18:41.240Z,14.30
2022-09-06T10:29:48.470Z,14.18
2022-09-06T10:35:00.147Z,10.35
2022-09-06T10:40:11.569Z,14.00
2022-09-06T10:45:30.000Z,13.80
2022-09-06T10:50:36.008Z,9.18
2022-09-06T10:55:40.626Z,12.27
2022-09-06T11:00:47.145Z,10.43
2022-09-06T11:05:55.121Z,10.68
2022-09-06T11:10:59.266Z,10.85
2022-09-06T11:16:05.577Z,12.88
2022-09-06T11:21:29.905Z,17.15
2022-09-06T11:26:54.561Z,16.47
2022-09-06T11:32:17.351Z,13.90
2022-09-06T11:37:34.726Z,13.27
2022-09-06T11:42:49.586Z,17.77
2022-09-06T11:47:53.553Z,17.73
2022-09-06T11:52:57.171Z,18.40
2022-09-06T11:58:01.136Z,17.27
2022-09-06T12:08:33.050Z,17.15
2022-09-06T12:13:48.580Z,19.20
2022-09-06T12:18:51.436Z,18.42
2022-09-06T12:23:54.274Z,18.13
2022-09-06T12:28:57.211Z,19.50
2022-09-06T12:34:08.305Z,18.90
2022-09-06T12:39:15.033Z,17.17
2022-09-06T12:44:28.384Z,18.23
2022-09-06T12:49:31.652Z,16.30
2022-09-06T12:54:34.604Z,17.55
2022-09-06T12:59:37.509Z,16.60
2022-09-06T13:04:46.972Z,12.60
2022-09-06T13:09:52.384Z,15.45
2022-09-06T13:14:56.571Z,15.60
2022-09-06T13:20:13.160Z,15.00
2022-09-06T13:25:23.529Z,13.32
2022-09-06T13:30:49.588Z,16.58
2022-09-06T13:36:08.693Z,19.77
2022-09-06T13:41:26.646Z,19.88
2022-09-06T13:46:29.668Z,17.55
2022-09-06T13:51:32.673Z,19.02
2022-09-06T13:56:36.032Z,18.70
2022-09-06T14:01:41.241Z,17.83
2022-09-06T14:06:44.235Z,18.93
2022-09-06T14:11:48.354Z,25.25
2022-09-06T14:16:51.551Z,23.58
2022-09-06T14:21:54.352Z,20.88
2022-09-06T14:26:57.512Z,16.10
2022-09-06T14:32:00.248Z,15.10
2022-09-06T14:37:03.062Z,15.95
2022-09-06T14:42:06.030Z,16.27
2022-09-06T14:47:08.975Z,15.23
2022-09-06T14:52:11.794Z,12.68
2022-09-06T14:57:14.504Z,13.63
2022-09-06T15:02:17.381Z,14.30
2022-09-06T15:07:20.369Z,12.45
2022-09-06T15:12:23.381Z,14.80
2022-09-06T15:17:26.109Z,16.02
2022-09-06T15:22:28.883Z,19.10
2022-09-06T15:27:32.342Z,14.25
2022-09-06T15:32:35.130Z,12.55
2022-09-06T15:37:37.863Z,14.68
2022-09-06T15:42:41.062Z,12.80
2022-09-06T15:47:43.762Z,13.65
2022-09-06T15:52:46.502Z,11.65
2022-09-06T15:57:49.318Z,11.77
2022-09-06T16:02:53.478Z,11.40
2022-09-06T16:07:59.534Z,12.60
2022-09-06T16:13:02.266Z,11.23
2022-09-06T16:18:05.729Z,9.77
2022-09-06T16:23:08.500Z,11.98
2022-09-06T16:28:11.313Z,10.00
2022-09-06T16:33:14.373Z,11.88
2022-09-06T16:38:17.187Z,13.02
2022-09-06T16:43:19.939Z,13.43
2022-09-06T16:48:22.750Z,9.38
2022-09-06T16:53:25.545Z,12.38
2022-09-06T16:58:30.355Z,11.57
2022-09-06T17:03:33.223Z,10.20
2022-09-06T17:08:37.000Z,10.80
2022-09-06T17:13:39.857Z,10.45
2022-09-06T17:18:43.319Z,9.75
2022-09-06T17:23:46.076Z,10.90
2022-09-06T17:28:50.181Z,11.35
2022-09-06T17:33:53.639Z,9.77
2022-09-06T17:39:08.131Z,10.48
2022-09-06T17:44:12.022Z,10.60
2022-09-06T17:49:15.357Z,10.10
2022-09-06T17:54:18.493Z,13.15
2022-09-06T17:59:21.404Z,10.55
2022-09-06T18:04:24.175Z,10.77
2022-09-06T18:09:27.009Z,10.30
2022-09-06T18:14:30.059Z,11.07
2022-09-06T18:19:33.122Z,10.77
2022-09-06T18:24:35.930Z,10.98
2022-09-06T18:29:38.709Z,10.82
2022-09-06T18:34:41.543Z,10.60
2022-09-06T18:39:44.603Z,10.32
2022-09-06T18:44:47.503Z,9.95
2022-09-06T18:49:50.286Z,11.98
2022-09-06T18:54:53.180Z,10.85
2022-09-06T18:59:55.892Z,12.23
2022-09-06T19:04:59.650Z,12.00
2022-09-06T19:10:02.416Z,15.40
2022-09-06T19:15:06.477Z,13.35
2022-09-06T19:20:11.066Z,13.73
2022-09-06T19:25:13.822Z,12.97
2022-09-06T19:30:16.592Z,12.65
2022-09-06T19:35:20.617Z,14.20
2022-09-06T19:40:23.456Z,16.63
2022-09-06T19:45:26.221Z,16.17
2022-09-06T19:50:28.971Z,16.25
2022-09-06T19:55:35.657Z,15.50
2022-09-06T20:00:41.437Z,16.08
2022-09-06T20:05:44.278Z,17.05
2022-09-06T20:10:57.935Z,16.58
2022-09-06T20:16:01.019Z,16.65
2022-09-06T20:21:04.416Z,19.42
2022-09-06T20:26:16.366Z,17.52
2022-09-06T20:31:21.056Z,19.05
2022-09-06T20:36:23.947Z,18.83
2022-09-06T20:41:27.805Z,19.17
2022-09-06T20:46:32.710Z,19.10
2022-09-06T20:51:36.652Z,19.98
2022-09-06T20:56:41.047Z,22.67
2022-09-06T21:01:46.350Z,23.00
2022-09-06T21:06:51.391Z,25.25
2022-09-06T21:11:54.691Z,23.05
2022-09-06T21:16:57.902Z,25.60
2022-09-06T21:22:01.240Z,24.45
2022-09-06T21:27:04.018Z,23.85
2022-09-06T21:32:06.927Z,25.05
2022-09-06T21:37:09.692Z,25.67
2022-09-06T21:42:12.467Z,27.25
2022-09-06T21:47:15.251Z,27.42
2022-09-06T21:52:18.035Z,22.27
2022-09-06T21:57:20.803Z,21.95
2022-09-06T22:02:24.024Z,21.10
2022-09-06T22:07:26.901Z,22.88
2022-09-06T22:12:29.710Z,21.75
2022-09-06T22:17:32.423Z,22.48
2022-09-06T22:22:35.560Z,23.90
2022-09-06T22:27:38.385Z,20.40
2022-09-06T22:32:41.419Z,23.02
2022-09-06T22:37:44.165Z,21.33
2022-09-06T22:42:47.258Z,26.27
2022-09-06T22:47:51.364Z,22.40
2022-09-06T22:52:54.357Z,22.98
2022-09-06T22:57:57.245Z,22.58
2022-09-06T23:03:00.009Z,24.77
2022-09-06T23:08:03.928Z,23.90
2022-09-06T23:13:08.228Z,21.85
2022-09-06T23:18:10.929Z,25.85
2022-09-06T23:23:14.051Z,23.83
2022-09-06T23:28:16.748Z,23.63
2022-09-06T23:33:19.463Z,22.85
2022-09-06T23:38:22.460Z,27.33
2022-09-06T23:43:25.175Z,24.02
2022-09-06T23:48:27.979Z,24.30
2022-09-06T23:53:31.191Z,24.85
2022-09-06T23:58:34.818Z,24.10
